This is the latest recevied weather packets stored in our database for station/object KC3SPD-13. If no packets are shown the sender has not sent any weather packets the latest 10 day(s).
| Time | Temp. | Humidity | Pressure | Rain* | Wind** | Luminosity | Snow |
|---|---|---|---|---|---|---|---|
| 1777725304 | 5° C | 77% | 966.1 hPa | 0 mm | - | 313 W/m² | - |
| 1777722004 | 3.89° C | 78% | 966.4 hPa | 0 mm | - | 132 W/m² | - |
| 1777720503 | 3.89° C | 81% | 966.4 hPa | 0 mm | - | 54 W/m² | - |
| 1777718704 | 3.33° C | 81% | 966.1 hPa | 0 mm | - | 24 W/m² | - |
| 1777718104 | 3.33° C | 82% | 966.1 hPa | 0 mm | - | 14 W/m² | - |
| 1777717504 | 3.33° C | 82% | 966.2 hPa | 0 mm | - | 6 W/m² | - |
| 1777710904 | 4.44° C | 77% | 966.3 hPa | 0 mm | - | 0 W/m² | - |
| 1777708804 | 5° C | 75% | 966.1 hPa | 0 mm | - | 0 W/m² | - |
| 1777703704 | 6.11° C | 74% | 966.1 hPa | 0 mm | - | 0 W/m² | - |
| 1777702804 | 6.11° C | 76% | 965.9 hPa | 0 mm | - | 0 W/m² | - |
| 1777701304 | 6.11° C | 76% | 966.1 hPa | 0 mm | - | 0 W/m² | - |
| 1777700104 | 6.67° C | 75% | 966.1 hPa | 0 mm | - | 0 W/m² | - |
| 1777698004 | 6.67° C | 78% | 965.9 hPa | 0 mm | - | 0 W/m² | - |
| 1777697104 | 6.67° C | 79% | 966 hPa | 0 mm | - | 0 W/m² | - |
| 1777696204 | 7.22° C | 80% | 965.9 hPa | 0 mm | - | 0 W/m² | - |
| 1777695303 | 7.78° C | 78% | 965.8 hPa | 0 mm | - | 0 W/m² | - |
| 1777694404 | 7.78° C | 78% | 965.8 hPa | 0 mm | - | 0 W/m² | - |
| 1777687804 | 8.89° C | 76% | 964.9 hPa | 0 mm | - | 0 W/m² | - |
| 1777685704 | 8.89° C | 74% | 964.8 hPa | 0 mm | - | 0 W/m² | - |
| 1777685404 | 8.89° C | 74% | 964.7 hPa | 0 mm | - | 0 W/m² | - |
| 1777683604 | 9.44° C | 74% | 964.3 hPa | 0 mm | - | 0 W/m² | - |
| 1777682104 | 10° C | 75% | 963.8 hPa | 0 mm | - | 0 W/m² | - |
| 1777680904 | 10° C | 72% | 963.3 hPa | 0 mm | - | 9 W/m² | - |
| 1777677904 | 13.89° C | 52% | 962.3 hPa | 0 mm | - | 0 W/m² | - |
| 1777676704 | 15° C | 48% | 961.9 hPa | 0 mm | - | 0 W/m² | - |
* Rain latest hour (hover to see other rain measurements)
** Current wind speed in m/s (hover to see current wind gust speed)